sensor_id;sensor_type;location;lat;lon;timestamp;temperature;humidity
59208;DHT22;44977;53.132;6.408;2022-08-16T00:04:30;21.40;99.90
59208;DHT22;44977;53.132;6.408;2022-08-16T00:09:31;21.40;99.90
59208;DHT22;44977;53.132;6.408;2022-08-16T00:14:33;21.40;99.90
59208;DHT22;44977;53.132;6.408;2022-08-16T00:19:34;21.40;99.90
59208;DHT22;44977;53.132;6.408;2022-08-16T00:24:35;21.30;99.90
59208;DHT22;44977;53.132;6.408;2022-08-16T00:29:36;21.30;99.90
59208;DHT22;44977;53.132;6.408;2022-08-16T00:34:37;21.30;99.90
59208;DHT22;44977;53.132;6.408;2022-08-16T00:39:37;21.30;99.90
59208;DHT22;44977;53.132;6.408;2022-08-16T00:44:39;21.30;99.90
59208;DHT22;44977;53.132;6.408;2022-08-16T00:49:41;21.30;99.90
59208;DHT22;44977;53.132;6.408;2022-08-16T00:54:42;21.20;99.90
59208;DHT22;44977;53.132;6.408;2022-08-16T00:59:43;21.20;99.90
59208;DHT22;44977;53.132;6.408;2022-08-16T01:04:44;21.20;99.90
59208;DHT22;44977;53.132;6.408;2022-08-16T01:09:44;21.10;99.90
59208;DHT22;44977;53.132;6.408;2022-08-16T01:14:50;21.10;99.90
59208;DHT22;44977;53.132;6.408;2022-08-16T01:19:57;21.10;99.90
59208;DHT22;44977;53.132;6.408;2022-08-16T01:25:06;21.10;99.90
59208;DHT22;44977;53.132;6.408;2022-08-16T01:30:09;21.10;99.90
59208;DHT22;44977;53.132;6.408;2022-08-16T01:35:35;21.00;99.90
59208;DHT22;44977;53.132;6.408;2022-08-16T01:40:36;21.00;99.90
59208;DHT22;44977;53.132;6.408;2022-08-16T01:45:36;20.90;99.90
59208;DHT22;44977;53.132;6.408;2022-08-16T01:50:40;20.90;99.90
59208;DHT22;44977;53.132;6.408;2022-08-16T01:55:41;20.80;99.90
59208;DHT22;44977;53.132;6.408;2022-08-16T02:00:44;20.90;99.90
59208;DHT22;44977;53.132;6.408;2022-08-16T02:05:45;20.80;99.90
59208;DHT22;44977;53.132;6.408;2022-08-16T02:10:46;20.80;99.90
59208;DHT22;44977;53.132;6.408;2022-08-16T02:15:47;20.80;99.90
59208;DHT22;44977;53.132;6.408;2022-08-16T02:20:50;20.80;99.90
59208;DHT22;44977;53.132;6.408;2022-08-16T02:25:52;20.80;99.90
59208;DHT22;44977;53.132;6.408;2022-08-16T02:30:54;20.80;99.90
59208;DHT22;44977;53.132;6.408;2022-08-16T02:35:55;20.80;99.90
59208;DHT22;44977;53.132;6.408;2022-08-16T02:40:56;20.70;99.90
59208;DHT22;44977;53.132;6.408;2022-08-16T02:45:57;20.80;99.90
59208;DHT22;44977;53.132;6.408;2022-08-16T02:51:00;20.80;99.90
59208;DHT22;44977;53.132;6.408;2022-08-16T02:56:01;20.80;99.90
59208;DHT22;44977;53.132;6.408;2022-08-16T03:01:02;20.70;99.90
59208;DHT22;44977;53.132;6.408;2022-08-16T03:06:03;20.70;99.90
59208;DHT22;44977;53.132;6.408;2022-08-16T03:11:04;20.70;99.90
59208;DHT22;44977;53.132;6.408;2022-08-16T03:16:06;20.60;99.90
59208;DHT22;44977;53.132;6.408;2022-08-16T03:21:07;20.60;99.90
59208;DHT22;44977;53.132;6.408;2022-08-16T03:26:08;20.50;99.90
59208;DHT22;44977;53.132;6.408;2022-08-16T03:31:09;20.50;99.90
59208;DHT22;44977;53.132;6.408;2022-08-16T03:36:10;20.40;99.90
59208;DHT22;44977;53.132;6.408;2022-08-16T03:41:11;20.40;99.90
59208;DHT22;44977;53.132;6.408;2022-08-16T03:46:12;20.40;99.90
59208;DHT22;44977;53.132;6.408;2022-08-16T03:51:12;20.30;99.90
59208;DHT22;44977;53.132;6.408;2022-08-16T03:56:13;20.20;99.90
59208;DHT22;44977;53.132;6.408;2022-08-16T04:01:14;20.20;99.90
59208;DHT22;44977;53.132;6.408;2022-08-16T04:06:14;20.10;99.90
59208;DHT22;44977;53.132;6.408;2022-08-16T04:11:15;20.00;99.90
59208;DHT22;44977;53.132;6.408;2022-08-16T04:16:16;19.90;99.90
59208;DHT22;44977;53.132;6.408;2022-08-16T04:21:17;19.90;99.90
59208;DHT22;44977;53.132;6.408;2022-08-16T04:26:18;19.90;99.90
59208;DHT22;44977;53.132;6.408;2022-08-16T04:31:19;19.80;99.90
59208;DHT22;44977;53.132;6.408;2022-08-16T04:36:19;19.80;99.90
59208;DHT22;44977;53.132;6.408;2022-08-16T04:41:20;19.70;99.90
59208;DHT22;44977;53.132;6.408;2022-08-16T04:46:21;19.70;99.90
59208;DHT22;44977;53.132;6.408;2022-08-16T04:51:22;19.70;99.90
59208;DHT22;44977;53.132;6.408;2022-08-16T04:56:23;19.60;99.90
59208;DHT22;44977;53.132;6.408;2022-08-16T05:01:24;19.60;99.90
59208;DHT22;44977;53.132;6.408;2022-08-16T05:06:25;19.60;99.90
59208;DHT22;44977;53.132;6.408;2022-08-16T05:11:26;19.70;99.90
59208;DHT22;44977;53.132;6.408;2022-08-16T05:16:29;19.70;99.90
59208;DHT22;44977;53.132;6.408;2022-08-16T05:21:31;19.70;99.90
59208;DHT22;44977;53.132;6.408;2022-08-16T05:26:34;19.70;99.90
59208;DHT22;44977;53.132;6.408;2022-08-16T05:31:36;19.70;99.90
59208;DHT22;44977;53.132;6.408;2022-08-16T05:36:37;19.70;99.90
59208;DHT22;44977;53.132;6.408;2022-08-16T05:41:38;19.80;99.90
59208;DHT22;44977;53.132;6.408;2022-08-16T05:46:38;19.90;99.90
59208;DHT22;44977;53.132;6.408;2022-08-16T05:51:40;19.90;99.90
59208;DHT22;44977;53.132;6.408;2022-08-16T05:56:42;20.00;99.90
59208;DHT22;44977;53.132;6.408;2022-08-16T06:01:43;20.10;99.90
59208;DHT22;44977;53.132;6.408;2022-08-16T06:06:44;20.20;99.90
59208;DHT22;44977;53.132;6.408;2022-08-16T06:11:46;20.30;99.90
59208;DHT22;44977;53.132;6.408;2022-08-16T06:16:47;20.20;99.90
59208;DHT22;44977;53.132;6.408;2022-08-16T06:21:47;20.30;99.90
59208;DHT22;44977;53.132;6.408;2022-08-16T06:26:48;20.50;99.90
59208;DHT22;44977;53.132;6.408;2022-08-16T06:31:49;20.60;99.90
59208;DHT22;44977;53.132;6.408;2022-08-16T06:36:49;20.70;99.90
59208;DHT22;44977;53.132;6.408;2022-08-16T06:41:50;20.80;99.90
59208;DHT22;44977;53.132;6.408;2022-08-16T06:46:51;21.00;99.90
59208;DHT22;44977;53.132;6.408;2022-08-16T06:51:52;21.10;99.90
59208;DHT22;44977;53.132;6.408;2022-08-16T06:56:52;21.30;99.90
59208;DHT22;44977;53.132;6.408;2022-08-16T07:01:53;21.50;99.90
59208;DHT22;44977;53.132;6.408;2022-08-16T07:06:54;21.70;99.90
59208;DHT22;44977;53.132;6.408;2022-08-16T07:11:54;21.90;99.90
59208;DHT22;44977;53.132;6.408;2022-08-16T07:16:56;22.10;99.90
59208;DHT22;44977;53.132;6.408;2022-08-16T07:21:57;22.20;99.90
59208;DHT22;44977;53.132;6.408;2022-08-16T07:27:02;22.50;99.90
59208;DHT22;44977;53.132;6.408;2022-08-16T07:32:03;22.70;99.90
59208;DHT22;44977;53.132;6.408;2022-08-16T07:37:09;22.90;99.90
59208;DHT22;44977;53.132;6.408;2022-08-16T07:42:10;23.10;99.90
59208;DHT22;44977;53.132;6.408;2022-08-16T07:47:11;23.20;99.90
59208;DHT22;44977;53.132;6.408;2022-08-16T07:52:12;23.30;99.90
59208;DHT22;44977;53.132;6.408;2022-08-16T07:57:13;23.60;99.90
59208;DHT22;44977;53.132;6.408;2022-08-16T08:02:14;23.60;99.90
59208;DHT22;44977;53.132;6.408;2022-08-16T08:07:15;23.90;99.90
59208;DHT22;44977;53.132;6.408;2022-08-16T08:12:16;24.10;99.90
59208;DHT22;44977;53.132;6.408;2022-08-16T08:17:18;24.30;99.90
59208;DHT22;44977;53.132;6.408;2022-08-16T08:22:19;24.50;99.90
59208;DHT22;44977;53.132;6.408;2022-08-16T08:27:21;24.80;99.90
59208;DHT22;44977;53.132;6.408;2022-08-16T08:32:22;25.00;99.90
59208;DHT22;44977;53.132;6.408;2022-08-16T08:37:25;25.20;99.90
59208;DHT22;44977;53.132;6.408;2022-08-16T08:42:26;25.30;99.90
59208;DHT22;44977;53.132;6.408;2022-08-16T08:47:27;25.40;99.90
59208;DHT22;44977;53.132;6.408;2022-08-16T08:52:28;25.80;99.90
59208;DHT22;44977;53.132;6.408;2022-08-16T08:57:29;26.00;99.90
59208;DHT22;44977;53.132;6.408;2022-08-16T09:02:29;26.20;99.90
59208;DHT22;44977;53.132;6.408;2022-08-16T09:07:30;26.20;99.90
59208;DHT22;44977;53.132;6.408;2022-08-16T09:12:31;26.30;99.90
59208;DHT22;44977;53.132;6.408;2022-08-16T09:17:32;26.50;99.90
59208;DHT22;44977;53.132;6.408;2022-08-16T09:22:33;26.80;99.90
59208;DHT22;44977;53.132;6.408;2022-08-16T09:27:33;26.90;99.90
59208;DHT22;44977;53.132;6.408;2022-08-16T09:32:35;27.10;99.90
59208;DHT22;44977;53.132;6.408;2022-08-16T09:37:36;27.10;99.90
59208;DHT22;44977;53.132;6.408;2022-08-16T09:42:36;27.20;99.90
59208;DHT22;44977;53.132;6.408;2022-08-16T09:47:37;27.40;99.90
59208;DHT22;44977;53.132;6.408;2022-08-16T09:52:40;27.50;99.90
59208;DHT22;44977;53.132;6.408;2022-08-16T09:57:41;27.70;99.90
59208;DHT22;44977;53.132;6.408;2022-08-16T10:02:41;28.00;99.90
59208;DHT22;44977;53.132;6.408;2022-08-16T10:07:43;28.20;99.90
59208;DHT22;44977;53.132;6.408;2022-08-16T10:12:47;28.20;99.60
59208;DHT22;44977;53.132;6.408;2022-08-16T10:18:08;28.50;96.50
59208;DHT22;44977;53.132;6.408;2022-08-16T10:28:14;29.00;93.80
59208;DHT22;44977;53.132;6.408;2022-08-16T10:33:15;29.00;94.40
59208;DHT22;44977;53.132;6.408;2022-08-16T10:38:16;29.00;84.60
59208;DHT22;44977;53.132;6.408;2022-08-16T10:43:16;29.10;89.90
59208;DHT22;44977;53.132;6.408;2022-08-16T10:48:17;29.30;87.30
59208;DHT22;44977;53.132;6.408;2022-08-16T10:53:18;29.40;87.40
59208;DHT22;44977;53.132;6.408;2022-08-16T10:58:19;29.60;85.80
59208;DHT22;44977;53.132;6.408;2022-08-16T11:03:19;29.70;79.90
59208;DHT22;44977;53.132;6.408;2022-08-16T11:08:21;29.60;79.30
59208;DHT22;44977;53.132;6.408;2022-08-16T11:13:24;29.70;73.50
59208;DHT22;44977;53.132;6.408;2022-08-16T11:18:27;29.80;70.70
59208;DHT22;44977;53.132;6.408;2022-08-16T11:23:29;29.90;71.00
59208;DHT22;44977;53.132;6.408;2022-08-16T11:28:31;30.00;71.20
59208;DHT22;44977;53.132;6.408;2022-08-16T11:33:32;30.00;69.80
59208;DHT22;44977;53.132;6.408;2022-08-16T11:38:33;30.10;68.10
59208;DHT22;44977;53.132;6.408;2022-08-16T11:43:36;30.10;67.10
59208;DHT22;44977;53.132;6.408;2022-08-16T11:48:37;30.00;69.10
59208;DHT22;44977;53.132;6.408;2022-08-16T11:53:39;30.30;67.90
59208;DHT22;44977;53.132;6.408;2022-08-16T11:58:39;30.50;67.40
59208;DHT22;44977;53.132;6.408;2022-08-16T12:03:41;30.50;66.60
59208;DHT22;44977;53.132;6.408;2022-08-16T12:08:43;30.50;67.60
59208;DHT22;44977;53.132;6.408;2022-08-16T12:13:44;30.30;66.90
59208;DHT22;44977;53.132;6.408;2022-08-16T12:18:46;30.20;65.80
59208;DHT22;44977;53.132;6.408;2022-08-16T12:23:48;30.30;66.00
59208;DHT22;44977;53.132;6.408;2022-08-16T12:28:49;30.40;65.80
59208;DHT22;44977;53.132;6.408;2022-08-16T12:33:53;30.50;62.10
59208;DHT22;44977;53.132;6.408;2022-08-16T12:38:53;30.50;61.20
59208;DHT22;44977;53.132;6.408;2022-08-16T12:43:57;30.40;60.50
59208;DHT22;44977;53.132;6.408;2022-08-16T12:49:03;30.60;59.80
59208;DHT22;44977;53.132;6.408;2022-08-16T12:54:06;30.60;59.00
59208;DHT22;44977;53.132;6.408;2022-08-16T12:59:10;30.50;58.10
59208;DHT22;44977;53.132;6.408;2022-08-16T13:04:11;30.40;58.90
59208;DHT22;44977;53.132;6.408;2022-08-16T13:09:12;30.30;60.10
59208;DHT22;44977;53.132;6.408;2022-08-16T13:14:29;30.20;62.70
59208;DHT22;44977;53.132;6.408;2022-08-16T13:19:30;30.10;64.90
59208;DHT22;44977;53.132;6.408;2022-08-16T13:24:30;30.00;67.10
59208;DHT22;44977;53.132;6.408;2022-08-16T13:29:31;29.90;69.60
59208;DHT22;44977;53.132;6.408;2022-08-16T13:34:32;29.70;71.20
59208;DHT22;44977;53.132;6.408;2022-08-16T13:39:33;29.70;70.40
59208;DHT22;44977;53.132;6.408;2022-08-16T13:44:34;29.60;70.70
59208;DHT22;44977;53.132;6.408;2022-08-16T13:49:36;29.70;72.20
59208;DHT22;44977;53.132;6.408;2022-08-16T13:54:37;29.70;72.70
59208;DHT22;44977;53.132;6.408;2022-08-16T13:59:38;29.80;73.10
59208;DHT22;44977;53.132;6.408;2022-08-16T14:04:40;30.00;70.70
59208;DHT22;44977;53.132;6.408;2022-08-16T14:09:41;30.10;68.00
59208;DHT22;44977;53.132;6.408;2022-08-16T14:14:42;30.20;69.30
59208;DHT22;44977;53.132;6.408;2022-08-16T14:19:43;30.10;69.40
59208;DHT22;44977;53.132;6.408;2022-08-16T14:24:46;30.00;72.10
59208;DHT22;44977;53.132;6.408;2022-08-16T14:29:48;30.00;75.00
59208;DHT22;44977;53.132;6.408;2022-08-16T14:34:50;29.90;76.50
59208;DHT22;44977;53.132;6.408;2022-08-16T14:39:51;29.70;76.20
59208;DHT22;44977;53.132;6.408;2022-08-16T14:44:52;29.60;78.90
59208;DHT22;44977;53.132;6.408;2022-08-16T14:49:53;29.40;79.10
59208;DHT22;44977;53.132;6.408;2022-08-16T14:54:53;29.30;80.90
59208;DHT22;44977;53.132;6.408;2022-08-16T14:59:54;29.10;86.70
59208;DHT22;44977;53.132;6.408;2022-08-16T15:04:55;28.90;88.40
59208;DHT22;44977;53.132;6.408;2022-08-16T15:09:58;28.80;91.30
59208;DHT22;44977;53.132;6.408;2022-08-16T15:14:58;28.90;91.40
59208;DHT22;44977;53.132;6.408;2022-08-16T15:19:59;28.90;92.00
59208;DHT22;44977;53.132;6.408;2022-08-16T15:25:04;29.00;92.40
59208;DHT22;44977;53.132;6.408;2022-08-16T15:30:05;29.10;91.10
59208;DHT22;44977;53.132;6.408;2022-08-16T15:35:08;29.00;89.00
59208;DHT22;44977;53.132;6.408;2022-08-16T15:40:14;28.80;90.50
59208;DHT22;44977;53.132;6.408;2022-08-16T15:45:16;28.60;89.00
59208;DHT22;44977;53.132;6.408;2022-08-16T15:50:38;28.60;89.70
59208;DHT22;44977;53.132;6.408;2022-08-16T15:55:41;28.70;85.00
59208;DHT22;44977;53.132;6.408;2022-08-16T16:00:43;28.70;81.20
59208;DHT22;44977;53.132;6.408;2022-08-16T16:05:49;28.70;78.80
59208;DHT22;44977;53.132;6.408;2022-08-16T16:10:57;28.50;81.30
59208;DHT22;44977;53.132;6.408;2022-08-16T16:16:01;28.50;79.80
59208;DHT22;44977;53.132;6.408;2022-08-16T16:21:07;28.40;76.50
59208;DHT22;44977;53.132;6.408;2022-08-16T16:26:08;28.30;75.60
59208;DHT22;44977;53.132;6.408;2022-08-16T16:31:11;28.10;75.20
59208;DHT22;44977;53.132;6.408;2022-08-16T16:36:15;27.90;76.10
59208;DHT22;44977;53.132;6.408;2022-08-16T16:41:19;27.80;78.30
59208;DHT22;44977;53.132;6.408;2022-08-16T16:46:24;27.70;80.40
59208;DHT22;44977;53.132;6.408;2022-08-16T16:51:25;27.70;81.80
59208;DHT22;44977;53.132;6.408;2022-08-16T16:56:26;27.50;83.20
59208;DHT22;44977;53.132;6.408;2022-08-16T17:01:48;27.50;85.10
59208;DHT22;44977;53.132;6.408;2022-08-16T17:06:49;27.30;86.70
59208;DHT22;44977;53.132;6.408;2022-08-16T17:11:50;27.10;79.60
59208;DHT22;44977;53.132;6.408;2022-08-16T17:16:51;26.90;76.40
59208;DHT22;44977;53.132;6.408;2022-08-16T17:21:51;26.80;73.70
59208;DHT22;44977;53.132;6.408;2022-08-16T17:26:52;26.70;75.30
59208;DHT22;44977;53.132;6.408;2022-08-16T17:31:53;26.60;77.10
59208;DHT22;44977;53.132;6.408;2022-08-16T17:36:53;26.40;79.80
59208;DHT22;44977;53.132;6.408;2022-08-16T17:41:54;26.30;82.70
59208;DHT22;44977;53.132;6.408;2022-08-16T17:46:56;26.20;84.80
59208;DHT22;44977;53.132;6.408;2022-08-16T17:51:56;26.00;88.70
59208;DHT22;44977;53.132;6.408;2022-08-16T17:56:58;25.90;91.10
59208;DHT22;44977;53.132;6.408;2022-08-16T18:01:59;25.80;94.30
59208;DHT22;44977;53.132;6.408;2022-08-16T18:07:00;25.80;98.20
59208;DHT22;44977;53.132;6.408;2022-08-16T18:12:14;25.70;99.90
59208;DHT22;44977;53.132;6.408;2022-08-16T18:17:16;25.60;99.90
59208;DHT22;44977;53.132;6.408;2022-08-16T18:22:26;25.60;99.90
59208;DHT22;44977;53.132;6.408;2022-08-16T18:27:28;25.50;99.90
59208;DHT22;44977;53.132;6.408;2022-08-16T18:32:31;25.40;99.90
59208;DHT22;44977;53.132;6.408;2022-08-16T18:37:32;25.30;99.90
59208;DHT22;44977;53.132;6.408;2022-08-16T18:42:35;25.20;99.90
59208;DHT22;44977;53.132;6.408;2022-08-16T18:47:35;25.10;99.90
59208;DHT22;44977;53.132;6.408;2022-08-16T18:52:36;24.90;99.90
59208;DHT22;44977;53.132;6.408;2022-08-16T18:57:37;24.80;99.90
59208;DHT22;44977;53.132;6.408;2022-08-16T19:02:38;24.80;99.90
59208;DHT22;44977;53.132;6.408;2022-08-16T19:07:40;24.60;99.90
59208;DHT22;44977;53.132;6.408;2022-08-16T19:12:41;24.50;99.90
59208;DHT22;44977;53.132;6.408;2022-08-16T19:17:43;24.40;99.90
59208;DHT22;44977;53.132;6.408;2022-08-16T19:22:45;24.20;99.90
59208;DHT22;44977;53.132;6.408;2022-08-16T19:27:46;24.20;99.90
59208;DHT22;44977;53.132;6.408;2022-08-16T19:32:48;24.00;99.90
59208;DHT22;44977;53.132;6.408;2022-08-16T19:37:49;24.00;99.90
59208;DHT22;44977;53.132;6.408;2022-08-16T19:42:50;23.80;99.90
59208;DHT22;44977;53.132;6.408;2022-08-16T19:47:52;23.70;99.90
59208;DHT22;44977;53.132;6.408;2022-08-16T19:53:06;23.60;99.90
59208;DHT22;44977;53.132;6.408;2022-08-16T19:58:08;23.40;99.90
59208;DHT22;44977;53.132;6.408;2022-08-16T20:03:12;23.40;99.90
59208;DHT22;44977;53.132;6.408;2022-08-16T20:08:13;23.40;99.90
59208;DHT22;44977;53.132;6.408;2022-08-16T20:13:21;23.30;99.90
59208;DHT22;44977;53.132;6.408;2022-08-16T20:18:22;23.10;99.90
59208;DHT22;44977;53.132;6.408;2022-08-16T20:23:22;23.00;99.90
59208;DHT22;44977;53.132;6.408;2022-08-16T20:28:23;22.90;99.90
59208;DHT22;44977;53.132;6.408;2022-08-16T20:33:24;22.90;99.90
59208;DHT22;44977;53.132;6.408;2022-08-16T20:38:25;22.80;99.90
59208;DHT22;44977;53.132;6.408;2022-08-16T20:43:25;22.70;99.90
59208;DHT22;44977;53.132;6.408;2022-08-16T20:48:26;22.60;99.90
59208;DHT22;44977;53.132;6.408;2022-08-16T20:53:27;22.60;99.90
59208;DHT22;44977;53.132;6.408;2022-08-16T20:58:27;22.50;99.90
59208;DHT22;44977;53.132;6.408;2022-08-16T21:03:28;22.50;99.90
59208;DHT22;44977;53.132;6.408;2022-08-16T21:08:29;22.40;99.90
59208;DHT22;44977;53.132;6.408;2022-08-16T21:13:31;22.20;99.90
59208;DHT22;44977;53.132;6.408;2022-08-16T21:18:33;22.20;99.90
59208;DHT22;44977;53.132;6.408;2022-08-16T21:23:34;22.20;99.90
59208;DHT22;44977;53.132;6.408;2022-08-16T21:28:34;22.20;99.90
59208;DHT22;44977;53.132;6.408;2022-08-16T21:33:35;22.10;99.90
59208;DHT22;44977;53.132;6.408;2022-08-16T21:38:36;22.10;99.90
59208;DHT22;44977;53.132;6.408;2022-08-16T21:43:37;22.00;99.90
59208;DHT22;44977;53.132;6.408;2022-08-16T21:48:38;22.00;99.90
59208;DHT22;44977;53.132;6.408;2022-08-16T21:53:40;22.00;99.90
59208;DHT22;44977;53.132;6.408;2022-08-16T21:58:41;22.00;99.90
59208;DHT22;44977;53.132;6.408;2022-08-16T22:03:42;21.90;99.90
59208;DHT22;44977;53.132;6.408;2022-08-16T22:08:44;21.90;99.90
59208;DHT22;44977;53.132;6.408;2022-08-16T22:13:45;21.90;99.90
59208;DHT22;44977;53.132;6.408;2022-08-16T22:18:45;21.80;99.90
59208;DHT22;44977;53.132;6.408;2022-08-16T22:23:46;21.80;99.90
59208;DHT22;44977;53.132;6.408;2022-08-16T22:28:47;21.70;99.90
59208;DHT22;44977;53.132;6.408;2022-08-16T22:33:47;21.60;99.90
59208;DHT22;44977;53.132;6.408;2022-08-16T22:38:48;21.60;99.90
59208;DHT22;44977;53.132;6.408;2022-08-16T22:43:49;21.50;99.90
59208;DHT22;44977;53.132;6.408;2022-08-16T22:48:50;21.50;99.90
59208;DHT22;44977;53.132;6.408;2022-08-16T22:53:51;21.40;99.90
59208;DHT22;44977;53.132;6.408;2022-08-16T22:58:52;21.30;99.90
59208;DHT22;44977;53.132;6.408;2022-08-16T23:03:53;21.40;99.90
59208;DHT22;44977;53.132;6.408;2022-08-16T23:08:55;21.30;99.90
59208;DHT22;44977;53.132;6.408;2022-08-16T23:13:56;21.30;99.90
59208;DHT22;44977;53.132;6.408;2022-08-16T23:18:57;21.20;99.90
59208;DHT22;44977;53.132;6.408;2022-08-16T23:23:57;21.20;99.90
59208;DHT22;44977;53.132;6.408;2022-08-16T23:28:58;21.10;99.90
59208;DHT22;44977;53.132;6.408;2022-08-16T23:33:59;21.10;99.90
59208;DHT22;44977;53.132;6.408;2022-08-16T23:38:59;21.10;99.90
59208;DHT22;44977;53.132;6.408;2022-08-16T23:44:00;21.00;99.90
59208;DHT22;44977;53.132;6.408;2022-08-16T23:49:01;20.90;99.90
59208;DHT22;44977;53.132;6.408;2022-08-16T23:54:03;20.80;99.90
59208;DHT22;44977;53.132;6.408;2022-08-16T23:59:07;20.80;99.90
